Time;durP1;ratioP1;P1;durP2;ratioP2;P2;SDS_P1;SDS_P2;PMS_P1;PMS_P2;Temp;Humidity;BMP_temperature;BMP_pressure;BME280_temperature;BME280_humidity;BME280_pressure;Samples;Min_cycle;Max_cycle;Signal;HPM_P1;HPM_P2
2020/12/25 00:02:24;;;;;;;1.67;1.30;;;;;;;1.32;100.00;95838.69;5101304;28;20472;-81
2020/12/25 00:04:50;;;;;;;1.20;1.10;;;;;;;1.30;100.00;95854.41;5102306;28;20447;-81
2020/12/25 00:07:16;;;;;;;1.30;1.10;;;;;;;1.23;100.00;95838.97;5116091;28;20448;-81
2020/12/25 00:09:43;;;;;;;1.40;1.30;;;;;;;1.29;100.00;95853.69;5120119;28;20447;-81
2020/12/25 00:12:09;;;;;;;1.23;1.13;;;;;;;1.30;100.00;95857.06;5120044;28;20494;-81
2020/12/25 00:14:35;;;;;;;1.67;1.50;;;;;;;1.25;100.00;95855.16;5120282;28;20435;-81
2020/12/25 00:17:02;;;;;;;1.20;1.10;;;;;;;1.34;100.00;95858.25;5120176;28;20428;-80
2020/12/25 00:19:29;;;;;;;1.50;1.40;;;;;;;1.27;100.00;95855.38;5104757;28;20527;-80
2020/12/25 00:21:55;;;;;;;1.50;1.30;;;;;;;1.38;100.00;95860.66;5102051;28;20548;-81
2020/12/25 00:24:22;;;;;;;2.83;1.80;;;;;;;1.38;100.00;95874.66;5102426;28;20433;-81
2020/12/25 00:26:48;;;;;;;2.30;1.30;;;;;;;1.44;100.00;95872.69;5102739;28;20538;-81
2020/12/25 00:29:14;;;;;;;1.73;1.63;;;;;;;1.46;100.00;95882.84;5103405;28;20476;-82
2020/12/25 00:31:41;;;;;;;1.47;1.37;;;;;;;1.55;100.00;95875.31;5102380;28;20455;-83
2020/12/25 00:34:11;;;;;;;1.47;1.37;;;;;;;1.54;100.00;95881.81;5099697;28;20433;-84
2020/12/25 00:36:40;;;;;;;0.93;0.93;;;;;;;1.58;100.00;95876.97;5100616;28;20440;-83
2020/12/25 00:39:08;;;;;;;0.70;0.70;;;;;;;1.60;100.00;95887.09;5100301;28;20925;-83
2020/12/25 00:41:34;;;;;;;0.80;0.80;;;;;;;1.63;100.00;95891.44;5101930;28;20980;-81
2020/12/25 00:44:01;;;;;;;0.73;0.70;;;;;;;1.63;100.00;95884.19;5102235;28;20507;-82
2020/12/25 00:46:27;;;;;;;1.03;0.80;;;;;;;1.63;100.00;95904.03;5101246;28;20757;-81
2020/12/25 00:48:54;;;;;;;0.70;0.60;;;;;;;1.69;100.00;95897.47;5102177;28;21022;-81
2020/12/25 00:51:22;;;;;;;0.70;0.70;;;;;;;1.73;100.00;95897.91;5101044;28;20492;-80
2020/12/25 00:53:49;;;;;;;0.90;0.70;;;;;;;1.76;100.00;95896.94;5099735;28;20786;-78
2020/12/25 00:56:17;;;;;;;0.80;0.80;;;;;;;1.63;100.00;95902.06;5095444;28;20516;-78
2020/12/25 00:58:44;;;;;;;1.00;0.87;;;;;;;1.70;100.00;95912.19;5095258;28;20436;-78
2020/12/25 01:01:12;;;;;;;0.80;0.80;;;;;;;1.72;100.00;95907.13;5096350;28;20479;-79
2020/12/25 01:03:40;;;;;;;1.10;0.93;;;;;;;1.79;100.00;95911.91;5098035;28;20425;-79
2020/12/25 01:06:09;;;;;;;0.73;0.73;;;;;;;1.73;100.00;95908.56;5097762;28;20441;-83
2020/12/25 01:08:35;;;;;;;1.03;0.87;;;;;;;1.78;100.00;95915.78;5102417;28;20506;-83
2020/12/25 01:11:02;;;;;;;1.20;0.97;;;;;;;1.72;100.00;95923.09;5095817;28;20976;-78
2020/12/25 01:13:29;;;;;;;1.50;1.40;;;;;;;1.77;100.00;95919.66;5094844;28;20436;-78
2020/12/25 01:15:55;;;;;;;1.27;1.10;;;;;;;1.74;100.00;95925.97;5095652;28;20452;-78
2020/12/25 01:18:22;;;;;;;1.40;1.13;;;;;;;1.71;100.00;95921.63;5097660;28;20433;-83
2020/12/25 01:20:48;;;;;;;1.93;1.60;;;;;;;1.70;100.00;95925.50;5098540;28;20501;-79
2020/12/25 01:23:14;;;;;;;1.33;1.23;;;;;;;1.77;100.00;95932.22;5097207;28;20947;-79
2020/12/25 01:25:40;;;;;;;1.30;1.20;;;;;;;1.82;100.00;95928.81;5097575;28;20535;-80
2020/12/25 01:28:08;;;;;;;2.17;1.70;;;;;;;1.78;100.00;95942.38;5097358;28;20906;-80
2020/12/25 01:30:34;;;;;;;1.33;1.20;;;;;;;1.80;100.00;95955.91;5097552;28;20443;-83
2020/12/25 01:33:00;;;;;;;2.70;1.43;;;;;;;1.79;100.00;95957.09;5097684;28;20429;-80
2020/12/25 01:35:27;;;;;;;1.07;0.90;;;;;;;1.78;100.00;95952.28;5099455;28;20611;-81
2020/12/25 01:37:53;;;;;;;2.03;1.20;;;;;;;1.84;100.00;95950.31;5101818;28;21066;-81
2020/12/25 01:40:19;;;;;;;1.83;1.50;;;;;;;1.78;100.00;95958.34;5102373;28;20436;-81
2020/12/25 01:42:46;;;;;;;1.90;1.70;;;;;;;1.77;100.00;95958.81;5102016;28;20447;-81
2020/12/25 01:45:13;;;;;;;2.07;1.50;;;;;;;1.86;100.00;95959.25;5099492;28;20440;-83
2020/12/25 01:47:40;;;;;;;2.60;1.80;;;;;;;1.90;100.00;95956.34;5098608;28;20480;-79
2020/12/25 01:50:06;;;;;;;1.80;1.40;;;;;;;1.93;100.00;95956.09;5094915;28;20441;-78
2020/12/25 01:52:34;;;;;;;2.83;2.13;;;;;;;2.00;100.00;95957.50;5096080;28;20557;-80
2020/12/25 01:55:01;;;;;;;2.03;1.83;;;;;;;2.02;100.00;95955.06;5097758;28;20535;-80
2020/12/25 01:57:29;;;;;;;2.23;1.90;;;;;;;2.01;100.00;95967.63;5097462;28;20445;-80
2020/12/25 01:59:56;;;;;;;2.50;2.30;;;;;;;2.05;100.00;95970.03;5097953;28;20831;-80
2020/12/25 02:02:24;;;;;;;2.93;2.63;;;;;;;2.04;100.00;95965.91;5100283;28;20460;-79
2020/12/25 02:04:52;;;;;;;3.17;2.70;;;;;;;2.06;100.00;95971.50;5100606;28;20812;-80
2020/12/25 02:07:18;;;;;;;8.97;3.50;;;;;;;1.99;100.00;95978.06;5112484;28;20495;-80
2020/12/25 02:09:45;;;;;;;3.93;2.70;;;;;;;1.98;100.00;95979.25;5109573;28;20448;-80
2020/12/25 02:12:11;;;;;;;5.27;3.60;;;;;;;2.05;100.00;95970.03;5095285;28;20464;-78
2020/12/25 02:14:38;;;;;;;5.00;3.77;;;;;;;2.04;100.00;95987.22;5103727;28;20425;-81
2020/12/25 02:17:04;;;;;;;5.30;4.00;;;;;;;2.02;100.00;95981.66;5118728;28;20435;-80
2020/12/25 02:19:36;;;;;;;4.17;3.77;;;;;;;2.01;100.00;95986.25;5117944;28;20448;-81
2020/12/25 02:22:03;;;;;;;5.10;3.63;;;;;;;2.04;100.00;95979.94;5118443;28;20475;-81
2020/12/25 02:24:29;;;;;;;5.00;4.10;;;;;;;2.04;100.00;95992.53;5111061;28;20429;-79
2020/12/25 02:26:56;;;;;;;5.00;3.80;;;;;;;2.06;100.00;95996.16;5095733;28;20449;-81
2020/12/25 02:29:22;;;;;;;5.90;4.63;;;;;;;2.05;100.00;95992.03;5101991;28;20520;-81
2020/12/25 02:31:49;;;;;;;7.67;5.03;;;;;;;2.05;100.00;95999.31;5102670;28;20460;-83
2020/12/25 02:34:15;;;;;;;6.43;4.43;;;;;;;2.00;100.00;95995.47;5099825;28;20500;-83
2020/12/25 02:36:42;;;;;;;8.83;4.53;;;;;;;2.05;100.00;95999.31;5096770;28;20432;-80
2020/12/25 02:39:09;;;;;;;6.67;4.40;;;;;;;2.05;100.00;95996.66;5099430;28;20823;-81
2020/12/25 02:41:35;;;;;;;7.90;4.73;;;;;;;2.05;100.00;95994.72;5101846;28;20471;-82
2020/12/25 02:44:02;;;;;;;9.10;5.90;;;;;;;2.02;100.00;96001.00;5098252;28;20516;-80
2020/12/25 02:46:29;;;;;;;6.13;5.20;;;;;;;2.03;100.00;95999.81;5101311;28;20453;-82
2020/12/25 02:48:55;;;;;;;7.83;5.60;;;;;;;2.05;100.00;96009.94;5101999;28;20476;-81
2020/12/25 02:51:22;;;;;;;8.50;5.60;;;;;;;2.04;100.00;96022.53;5099264;28;20551;-79
2020/12/25 02:53:48;;;;;;;6.73;5.03;;;;;;;1.99;100.00;96001.28;5096566;28;20809;-78
2020/12/25 02:56:17;;;;;;;5.63;4.90;;;;;;;2.07;100.00;96012.81;5099872;28;20436;-83
2020/12/25 02:58:43;;;;;;;8.17;5.23;;;;;;;2.07;100.00;96005.56;5102836;28;20437;-81
2020/12/25 03:01:11;;;;;;;6.67;5.07;;;;;;;2.02;100.00;96018.91;5103069;28;20487;-83
2020/12/25 03:03:38;;;;;;;6.80;5.03;;;;;;;2.07;100.00;96012.81;5101674;28;20440;-83
2020/12/25 03:06:04;;;;;;;7.13;5.60;;;;;;;2.06;100.00;96025.44;5099744;28;20433;-80
2020/12/25 03:08:30;;;;;;;7.20;5.20;;;;;;;1.99;100.00;96019.88;5099574;28;20483;-80
2020/12/25 03:10:57;;;;;;;9.67;5.77;;;;;;;1.96;100.00;96021.59;5099742;28;20871;-79
2020/12/25 03:13:24;;;;;;;10.13;5.80;;;;;;;2.04;100.00;96030.50;5104534;28;20829;-79
2020/12/25 03:15:50;;;;;;;9.00;5.37;;;;;;;2.08;100.00;96038.97;5099114;28;20448;-79
2020/12/25 03:18:17;;;;;;;9.03;6.00;;;;;;;2.13;100.00;96037.50;5096908;28;20947;-79
2020/12/25 03:20:43;;;;;;;7.93;6.20;;;;;;;2.10;100.00;96038.44;5101163;28;20452;-81
2020/12/25 03:23:09;;;;;;;11.03;6.00;;;;;;;2.15;100.00;96037.72;5105284;28;20452;-81
2020/12/25 03:25:36;;;;;;;7.97;5.90;;;;;;;2.18;100.00;96036.72;5105506;28;20445;-82
2020/12/25 03:28:02;;;;;;;9.93;5.50;;;;;;;2.21;100.00;96029.69;5105336;28;20543;-81
2020/12/25 03:30:29;;;;;;;7.53;4.67;;;;;;;2.17;100.00;96045.91;5103709;28;20452;-80
2020/12/25 03:32:56;;;;;;;10.00;6.43;;;;;;;2.12;100.00;96044.03;5100128;28;20932;-80
2020/12/25 03:35:22;;;;;;;10.00;5.43;;;;;;;2.14;100.00;96044.97;5098193;28;20482;-78
2020/12/25 03:37:48;;;;;;;10.37;6.70;;;;;;;2.11;100.00;96056.59;5098895;28;20815;-79
2020/12/25 03:40:15;;;;;;;7.50;6.57;;;;;;;2.17;100.00;96043.25;5099344;28;20448;-79
2020/12/25 03:42:43;;;;;;;11.40;5.70;;;;;;;2.21;100.00;96048.31;5102331;28;20453;-82
2020/12/25 03:45:09;;;;;;;9.53;6.57;;;;;;;2.19;100.00;96043.50;5100930;28;20429;-82
2020/12/25 03:47:37;;;;;;;7.80;5.97;;;;;;;2.17;100.00;96044.00;5100325;28;20444;-83
2020/12/25 03:50:03;;;;;;;9.30;6.43;;;;;;;2.17;100.00;96035.28;5098000;28;20445;-79
2020/12/25 03:52:30;;;;;;;7.83;6.13;;;;;;;2.22;100.00;96039.88;5096716;28;20464;-79
2020/12/25 03:54:56;;;;;;;10.77;6.00;;;;;;;2.21;100.00;96054.38;5099253;28;20590;-82
2020/12/25 03:57:22;;;;;;;13.80;6.63;;;;;;;2.21;100.00;96054.38;5101294;28;20448;-79
2020/12/25 03:59:49;;;;;;;9.67;6.60;;;;;;;2.25;100.00;96057.50;5096144;28;20448;-79
2020/12/25 04:02:15;;;;;;;10.50;6.00;;;;;;;2.23;100.00;96051.22;5096802;28;20984;-79
2020/12/25 04:04:42;;;;;;;12.23;6.67;;;;;;;2.19;100.00;96058.75;5095511;28;20536;-79
2020/12/25 04:07:09;;;;;;;9.20;7.20;;;;;;;2.19;100.00;96043.50;5096420;28;20448;-79
2020/12/25 04:09:35;;;;;;;12.20;6.13;;;;;;;2.25;100.00;96064.75;5095604;28;20476;-79
2020/12/25 04:12:01;;;;;;;9.23;6.13;;;;;;;2.20;100.00;96070.81;5098261;28;20968;-81
2020/12/25 04:14:27;;;;;;;12.43;7.53;;;;;;;2.19;100.00;96059.47;5103442;28;20441;-80
2020/12/25 04:16:54;;;;;;;10.20;6.40;;;;;;;2.22;100.00;96057.75;5098343;28;20452;-80
2020/12/25 04:19:20;;;;;;;8.37;5.73;;;;;;;2.21;100.00;96081.00;5097866;28;20531;-79
2020/12/25 04:21:47;;;;;;;9.73;6.80;;;;;;;2.26;100.00;96066.19;5100347;28;20460;-82
2020/12/25 04:24:14;;;;;;;9.50;5.93;;;;;;;2.20;100.00;96071.53;5101189;28;20455;-81
2020/12/25 04:26:45;;;;;;;9.17;6.40;;;;;;;2.17;100.00;96067.94;5100385;28;20456;-80
2020/12/25 04:29:12;;;;;;;7.20;5.70;;;;;;;2.26;100.00;96068.84;5100271;28;20498;-80
2020/12/25 04:31:38;;;;;;;8.27;6.07;;;;;;;2.17;100.00;96065.28;5096948;28;20472;-79
2020/12/25 04:34:05;;;;;;;8.43;6.20;;;;;;;2.13;100.00;96078.09;5095531;28;20445;-78
2020/12/25 04:36:31;;;;;;;8.23;5.80;;;;;;;2.15;100.00;96070.38;5099960;28;20440;-81
2020/12/25 04:38:58;;;;;;;8.53;6.20;;;;;;;2.21;100.00;96078.31;5100872;28;20455;-82
2020/12/25 04:41:25;;;;;;;8.67;6.33;;;;;;;2.22;100.00;96081.72;5100643;28;20444;-83
2020/12/25 04:43:53;;;;;;;7.80;5.50;;;;;;;2.22;100.00;96089.69;5101121;28;20509;-82
2020/12/25 04:46:21;;;;;;;8.60;5.60;;;;;;;2.19;100.00;96096.00;5100528;28;20531;-83
2020/12/25 04:48:49;;;;;;;7.00;5.70;;;;;;;2.18;100.00;96097.94;5100481;28;20484;-83
2020/12/25 04:51:15;;;;;;;8.00;5.40;;;;;;;2.11;100.00;96093.13;5097472;28;20465;-79
2020/12/25 04:53:42;;;;;;;6.27;5.63;;;;;;;2.18;100.00;96105.91;5097401;28;20477;-82
2020/12/25 04:56:09;;;;;;;8.57;5.37;;;;;;;2.22;100.00;96095.03;5099171;28;20527;-80
2020/12/25 04:58:36;;;;;;;9.10;5.57;;;;;;;2.13;100.00;96104.72;5100188;28;20443;-82
2020/12/25 05:01:04;;;;;;;6.70;5.03;;;;;;;2.21;100.00;96110.25;5102199;28;20468;-81
2020/12/25 05:03:34;;;;;;;6.60;5.20;;;;;;;2.16;100.00;96106.41;5096737;28;20479;-80
2020/12/25 05:06:05;;;;;;;6.33;4.80;;;;;;;2.25;100.00;96110.75;5097547;28;20921;-80
2020/12/25 05:08:39;;;;;;;9.10;5.87;;;;;;;2.20;100.00;96111.47;5097594;28;20537;-83
2020/12/25 05:11:06;;;;;;;6.27;4.90;;;;;;;2.21;100.00;96117.53;5097832;28;20455;-83
2020/12/25 05:13:34;;;;;;;4.93;4.40;;;;;;;2.21;100.00;96118.25;5098379;28;20801;-80
2020/12/25 05:16:00;;;;;;;5.70;5.10;;;;;;;2.26;100.00;96132.72;5097532;28;20810;-82
2020/12/25 05:18:31;;;;;;;6.33;5.13;;;;;;;2.15;100.00;96134.25;5098326;28;20437;-82
2020/12/25 05:20:58;;;;;;;8.00;4.80;;;;;;;2.23;100.00;96134.44;5098689;28;20448;-83
2020/12/25 05:23:34;;;;;;;6.70;5.40;;;;;;;2.25;100.00;96137.34;5098726;28;20478;-83
2020/12/25 05:26:00;;;;;;;8.07;5.47;;;;;;;2.28;100.00;96135.66;5098078;28;20488;-83
2020/12/25 05:28:28;;;;;;;8.50;5.07;;;;;;;2.23;100.00;96139.75;5096943;28;20551;-83
2020/12/25 05:30:58;;;;;;;8.43;6.10;;;;;;;2.16;100.00;96141.00;5096521;28;20460;-80
2020/12/25 05:33:25;;;;;;;6.50;5.20;;;;;;;2.22;100.00;96137.59;5097652;28;20831;-80
2020/12/25 05:35:53;;;;;;;6.83;5.73;;;;;;;2.19;100.00;96139.31;5110711;28;20427;-81
2020/12/25 05:38:20;;;;;;;6.57;5.30;;;;;;;2.19;100.00;96143.91;5117929;28;20458;-80
2020/12/25 05:40:46;;;;;;;8.00;6.23;;;;;;;2.16;100.00;96148.28;5116680;28;20444;-78
2020/12/25 05:43:15;;;;;;;8.50;5.60;;;;;;;2.21;100.00;96146.78;5108731;28;20437;-79
2020/12/25 05:45:41;;;;;;;8.23;5.90;;;;;;;2.20;100.00;96148.00;5101708;28;20432;-78
2020/12/25 05:48:10;;;;;;;8.43;5.70;;;;;;;2.10;100.00;96158.91;5097459;28;20480;-78
2020/12/25 05:50:37;;;;;;;7.03;5.37;;;;;;;2.15;100.00;96152.13;5096566;28;20833;-79
2020/12/25 05:53:04;;;;;;;9.17;6.00;;;;;;;2.23;100.00;96150.41;5096943;28;20451;-79
2020/12/25 05:55:31;;;;;;;6.70;5.80;;;;;;;2.20;100.00;96154.03;5097239;28;20523;-79
2020/12/25 05:57:57;;;;;;;10.37;7.73;;;;;;;2.21;100.00;96157.44;5106477;28;20462;-80
2020/12/25 06:00:25;;;;;;;6.60;5.37;;;;;;;2.23;100.00;96160.31;5108821;28;20586;-80
2020/12/25 06:02:52;;;;;;;8.67;6.40;;;;;;;2.20;100.00;96162.03;5112337;28;20444;-80
2020/12/25 06:05:22;;;;;;;8.20;6.17;;;;;;;2.16;100.00;96164.25;5109017;28;20461;-83
2020/12/25 06:07:51;;;;;;;12.83;7.33;;;;;;;2.13;100.00;96170.53;5097863;28;20454;-83
2020/12/25 06:10:20;;;;;;;7.90;5.60;;;;;;;2.18;100.00;96169.78;5098424;28;20793;-83
2020/12/25 06:12:47;;;;;;;11.00;8.60;;;;;;;2.11;100.00;96180.94;5100600;28;20436;-81
2020/12/25 06:15:20;;;;;;;8.87;6.77;;;;;;;2.10;100.00;96171.47;5101123;28;20432;-81
2020/12/25 06:17:57;;;;;;;8.60;6.80;;;;;;;2.11;100.00;96176.34;5099407;28;20413;-80
2020/12/25 06:20:26;;;;;;;11.73;8.00;;;;;;;2.14;100.00;96186.00;5100047;28;20432;-81
2020/12/25 06:22:53;;;;;;;11.43;8.00;;;;;;;2.08;100.00;96176.59;5099119;28;20440;-80
2020/12/25 06:25:21;;;;;;;10.90;6.90;;;;;;;2.06;100.00;96184.34;5098437;28;20515;-80
2020/12/25 06:27:51;;;;;;;12.37;8.60;;;;;;;2.10;100.00;96174.16;5098765;28;20444;-83
2020/12/25 06:30:28;;;;;;;10.60;7.67;;;;;;;2.17;100.00;96182.38;5100943;28;20444;-83
2020/12/25 06:32:56;;;;;;;10.07;7.27;;;;;;;2.17;100.00;96190.34;5101742;28;20443;-82
2020/12/25 06:35:30;;;;;;;10.57;6.93;;;;;;;2.21;100.00;96189.38;5102315;28;20444;-80
2020/12/25 06:37:57;;;;;;;11.33;8.30;;;;;;;2.23;100.00;96194.91;5101165;28;20531;-79
2020/12/25 06:40:25;;;;;;;9.00;6.90;;;;;;;2.21;100.00;96192.75;5099655;28;20933;-83
2020/12/25 06:42:54;;;;;;;9.80;6.87;;;;;;;2.08;100.00;96198.59;5100383;28;20961;-82
2020/12/25 06:45:28;;;;;;;11.57;7.73;;;;;;;2.11;100.00;96202.22;5102963;28;20501;-82
2020/12/25 06:48:12;;;;;;;11.53;6.97;;;;;;;2.03;100.00;96207.31;5103758;28;20432;-82
2020/12/25 06:50:51;;;;;;;10.97;7.30;;;;;;;2.03;100.00;96209.25;5102844;28;20987;-82
2020/12/25 06:53:37;;;;;;;11.00;7.10;;;;;;;2.01;100.00;96209.72;5102326;28;20427;-79
2020/12/25 06:56:08;;;;;;;9.47;7.03;;;;;;;2.00;100.00;96213.63;5104235;28;20429;-82
2020/12/25 06:58:37;;;;;;;12.13;7.00;;;;;;;1.96;100.00;96207.81;5102096;28;20476;-83
2020/12/25 07:01:04;;;;;;;10.93;6.90;;;;;;;2.00;100.00;96213.63;5101854;28;20459;-83
2020/12/25 07:03:34;;;;;;;10.47;6.80;;;;;;;1.99;100.00;96222.81;5100107;28;20425;-83
2020/12/25 07:06:03;;;;;;;10.13;7.10;;;;;;;1.98;100.00;96224.00;5102412;28;20409;-82
2020/12/25 07:08:31;;;;;;;10.73;6.57;;;;;;;1.97;100.00;96222.53;5102785;28;20483;-82
2020/12/25 07:11:03;;;;;;;6.80;5.30;;;;;;;1.96;100.00;96231.75;5103240;28;20559;-82
2020/12/25 07:13:31;;;;;;;7.23;5.17;;;;;;;1.82;100.00;96230.06;5102571;28;20834;-81
2020/12/25 07:15:58;;;;;;;7.00;5.10;;;;;;;1.88;100.00;96238.06;5101754;28;20937;-80
2020/12/25 07:18:24;;;;;;;7.63;5.47;;;;;;;1.94;100.00;96239.47;5101413;28;20445;-83
2020/12/25 07:20:51;;;;;;;5.83;4.70;;;;;;;1.90;100.00;96246.25;5100014;28;20479;-83
2020/12/25 07:23:20;;;;;;;7.20;5.33;;;;;;;1.74;100.00;96244.34;5101281;28;20468;-80
2020/12/25 07:25:46;;;;;;;7.00;5.40;;;;;;;1.85;100.00;96250.38;5101079;28;20452;-79
2020/12/25 07:28:13;;;;;;;7.33;5.37;;;;;;;1.87;100.00;96261.25;5101151;28;20480;-80
2020/12/25 07:30:40;;;;;;;5.67;4.83;;;;;;;1.92;100.00;96255.22;5101603;28;20586;-83
2020/12/25 07:33:07;;;;;;;6.17;4.53;;;;;;;1.95;100.00;96254.22;5101348;28;20439;-84
2020/12/25 07:35:33;;;;;;;6.73;5.43;;;;;;;1.91;100.00;96264.38;5101102;28;20435;-81
2020/12/25 07:38:00;;;;;;;7.80;5.90;;;;;;;1.90;100.00;96257.63;5101514;28;20428;-79
2020/12/25 07:40:27;;;;;;;6.43;5.00;;;;;;;1.89;100.00;96268.75;5109866;28;20441;-79
2020/12/25 07:42:54;;;;;;;7.17;5.23;;;;;;;1.86;100.00;96265.13;5112166;28;20457;-82
2020/12/25 07:45:20;;;;;;;7.00;4.73;;;;;;;1.90;100.00;96268.28;5114802;28;20963;-82
2020/12/25 07:47:50;;;;;;;7.70;5.03;;;;;;;1.82;100.00;96277.19;5115766;28;20424;-82
2020/12/25 07:50:16;;;;;;;8.20;5.83;;;;;;;1.82;100.00;96280.59;5114423;28;20456;-81
2020/12/25 07:52:43;;;;;;;7.60;5.27;;;;;;;1.81;100.00;96287.13;5106344;28;20461;-80
2020/12/25 07:55:10;;;;;;;8.00;5.80;;;;;;;1.76;100.00;96290.50;5103105;28;20436;-79
2020/12/25 07:57:38;;;;;;;7.47;5.60;;;;;;;1.77;100.00;96291.22;5102865;28;20536;-80
2020/12/25 08:00:06;;;;;;;7.97;5.87;;;;;;;1.74;100.00;96290.25;5101562;28;20432;-83
2020/12/25 08:02:32;;;;;;;10.23;6.30;;;;;;;1.71;100.00;96290.50;5100724;28;20461;-83
2020/12/25 08:04:59;;;;;;;10.13;6.77;;;;;;;1.66;100.00;96297.25;5100615;28;20939;-83
2020/12/25 08:07:25;;;;;;;9.40;6.87;;;;;;;1.67;100.00;96305.97;5101814;28;20559;-81
2020/12/25 08:09:52;;;;;;;9.33;6.43;;;;;;;1.74;100.00;96302.84;5102592;28;20579;-80
2020/12/25 08:12:21;;;;;;;9.33;7.10;;;;;;;1.69;100.00;96312.28;5104332;28;20461;-82
2020/12/25 08:14:51;;;;;;;10.07;7.03;;;;;;;1.71;100.00;96309.84;5102541;28;20433;-80
2020/12/25 08:17:18;;;;;;;10.03;7.37;;;;;;;1.64;100.00;96307.66;5101103;28;20466;-83
2020/12/25 08:19:47;;;;;;;7.70;5.80;;;;;;;1.71;100.00;96314.44;5100643;28;20446;-79
2020/12/25 08:22:13;;;;;;;10.90;6.73;;;;;;;1.73;100.00;96312.00;5100009;28;20460;-83
2020/12/25 08:24:40;;;;;;;11.10;7.80;;;;;;;1.74;100.00;96316.13;5100668;28;20925;-83
2020/12/25 08:27:08;;;;;;;12.03;7.00;;;;;;;1.75;100.00;96320.97;5101387;28;20436;-80
2020/12/25 08:29:36;;;;;;;11.63;7.70;;;;;;;1.70;100.00;96315.63;5102283;28;20484;-82
2020/12/25 08:32:07;;;;;;;13.80;8.27;;;;;;;1.70;100.00;96319.03;5103051;28;20456;-83
2020/12/25 08:34:33;;;;;;;12.47;8.13;;;;;;;1.72;100.00;96311.31;5099443;28;20421;-83
2020/12/25 08:37:01;;;;;;;12.90;8.97;;;;;;;1.80;100.00;96322.19;5100302;28;20501;-83
2020/12/25 08:39:28;;;;;;;12.23;7.80;;;;;;;1.83;100.00;96321.94;5099595;28;20471;-82
2020/12/25 08:41:55;;;;;;;15.03;9.37;;;;;;;1.82;100.00;96325.06;5098966;28;20461;-83
2020/12/25 08:44:22;;;;;;;16.20;10.30;;;;;;;1.71;100.00;96325.81;5099407;28;20784;-83
2020/12/25 08:46:48;;;;;;;14.30;8.50;;;;;;;1.71;100.00;96330.38;5098016;28;20482;-79
2020/12/25 08:49:26;;;;;;;20.37;10.20;;;;;;;1.73;100.00;96334.00;5097507;28;20495;-80
2020/12/25 08:51:52;;;;;;;16.30;9.40;;;;;;;1.73;100.00;96328.69;5096752;28;21007;-83
2020/12/25 08:54:26;;;;;;;19.40;11.93;;;;;;;1.72;100.00;96334.50;5097121;28;20802;-83
2020/12/25 08:56:52;;;;;;;17.60;10.80;;;;;;;1.82;100.00;96330.41;5097743;28;20432;-83
2020/12/25 08:59:20;;;;;;;22.13;11.00;;;;;;;1.81;100.00;96348.31;5099390;28;20441;-80
2020/12/25 09:01:48;;;;;;;22.47;11.53;;;;;;;1.83;100.00;96351.19;5104872;28;20460;-82
2020/12/25 09:04:15;;;;;;;21.03;12.47;;;;;;;1.89;100.00;96345.88;5103822;28;20460;-81
2020/12/25 09:06:43;;;;;;;19.60;12.03;;;;;;;1.99;100.00;96355.09;5100415;28;20433;-80
2020/12/25 09:09:09;;;;;;;23.00;12.00;;;;;;;1.97;100.00;96357.50;5098607;28;20480;-80
2020/12/25 09:11:36;;;;;;;18.77;11.70;;;;;;;2.04;100.00;96372.97;5100436;28;20528;-83
2020/12/25 09:14:02;;;;;;;20.43;11.50;;;;;;;2.06;100.00;96368.66;5100008;28;20629;-83
2020/12/25 09:16:29;;;;;;;23.50;11.90;;;;;;;2.12;100.00;96377.38;5099163;28;20992;-83
2020/12/25 09:18:56;;;;;;;25.23;13.20;;;;;;;2.13;100.00;96381.47;5098505;28;20523;-80
2020/12/25 09:21:24;;;;;;;21.93;12.13;;;;;;;2.14;100.00;96377.59;5097263;28;20468;-79
2020/12/25 09:23:51;;;;;;;19.63;11.93;;;;;;;2.02;100.00;96384.13;5095909;28;20445;-79
2020/12/25 09:26:18;;;;;;;19.70;11.10;;;;;;;2.07;100.00;96378.06;5094851;28;20517;-79
2020/12/25 09:28:44;;;;;;;26.90;13.67;;;;;;;2.17;100.00;96381.22;5096952;28;20548;-82
2020/12/25 09:31:12;;;;;;;22.70;11.40;;;;;;;2.24;100.00;96386.06;5102066;28;20461;-82
2020/12/25 09:33:39;;;;;;;16.23;9.87;;;;;;;2.24;100.00;96393.31;5102065;28;20446;-82
2020/12/25 09:36:07;;;;;;;17.53;10.40;;;;;;;2.12;100.00;96388.00;5101778;28;20466;-83
2020/12/25 09:38:34;;;;;;;18.63;11.47;;;;;;;2.19;100.00;96391.41;5098997;28;20437;-83
2020/12/25 09:41:01;;;;;;;21.47;11.00;;;;;;;2.08;100.00;96395.50;5100035;28;20518;-81
2020/12/25 09:43:29;;;;;;;20.33;11.80;;;;;;;2.20;100.00;96395.50;5099560;28;20449;-80
2020/12/25 09:45:56;;;;;;;21.70;10.23;;;;;;;2.22;100.00;96393.09;5099958;28;20441;-81
2020/12/25 09:48:22;;;;;;;24.70;12.17;;;;;;;2.22;100.00;96387.78;5099854;28;20498;-80
2020/12/25 09:50:48;;;;;;;19.73;11.23;;;;;;;2.23;100.00;96397.19;5096147;28;20502;-79
2020/12/25 09:53:15;;;;;;;19.40;11.37;;;;;;;2.13;100.00;96402.03;5096380;28;20451;-78
2020/12/25 09:55:42;;;;;;;18.57;10.60;;;;;;;2.13;100.00;96402.03;5098850;28;20451;-82
2020/12/25 09:58:10;;;;;;;20.77;11.07;;;;;;;2.19;100.00;96399.38;5100915;28;20459;-82
2020/12/25 10:00:37;;;;;;;16.47;11.00;;;;;;;2.19;100.00;96418.00;5100074;28;20439;-83
2020/12/25 10:03:03;;;;;;;19.80;12.37;;;;;;;2.24;100.00;96407.38;5100442;28;20444;-83
2020/12/25 10:05:30;;;;;;;18.43;10.57;;;;;;;2.40;100.00;96414.63;5105512;28;20443;-81
2020/12/25 10:07:56;;;;;;;17.20;9.77;;;;;;;2.35;100.00;96411.97;5104994;28;20448;-81
2020/12/25 10:10:24;;;;;;;13.17;8.33;;;;;;;2.35;100.00;96417.31;5102076;28;20484;-80
2020/12/25 10:12:52;;;;;;;20.97;10.70;;;;;;;2.43;100.00;96404.94;5099467;28;20448;-80
2020/12/25 10:15:20;;;;;;;16.43;8.40;;;;;;;2.36;100.00;96402.75;5100682;28;20447;-78
2020/12/25 10:17:46;;;;;;;15.13;9.00;;;;;;;2.44;100.00;96403.75;5099000;28;20451;-78
2020/12/25 10:20:13;;;;;;;13.87;8.93;;;;;;;2.41;100.00;96416.06;5102886;28;20905;-82
2020/12/25 10:22:39;;;;;;;18.73;8.87;;;;;;;2.45;100.00;96405.19;5104054;28;20464;-82
2020/12/25 10:25:05;;;;;;;14.80;7.77;;;;;;;2.39;100.00;96404.47;5101645;28;20826;-80
2020/12/25 10:27:32;;;;;;;12.20;8.13;;;;;;;2.39;100.00;96407.13;5101558;28;20494;-80
2020/12/25 10:29:58;;;;;;;17.87;8.77;;;;;;;2.23;100.00;96400.59;5101608;28;20480;-80
2020/12/25 10:32:25;;;;;;;13.13;8.17;;;;;;;2.28;100.00;96407.13;5100739;28;20452;-82
2020/12/25 10:34:52;;;;;;;13.97;8.87;;;;;;;2.36;100.00;96400.84;5102659;28;20932;-83
2020/12/25 10:37:19;;;;;;;16.50;7.83;;;;;;;2.20;100.00;96398.16;5101874;28;20524;-80
2020/12/25 10:39:45;;;;;;;12.90;8.50;;;;;;;2.22;100.00;96399.16;5101190;28;20453;-80
2020/12/25 10:42:12;;;;;;;12.40;7.17;;;;;;;2.33;100.00;96406.41;5101418;28;20464;-80
2020/12/25 10:44:39;;;;;;;24.10;9.23;;;;;;;2.29;100.00;96403.25;5101179;28;20441;-79
2020/12/25 10:47:05;;;;;;;14.13;8.77;;;;;;;2.26;100.00;96396.22;5099876;28;20509;-80
2020/12/25 10:49:33;;;;;;;19.43;9.20;;;;;;;2.27;100.00;96390.44;5100969;28;20575;-80
2020/12/25 10:51:59;;;;;;;15.67;9.53;;;;;;;2.36;100.00;96394.78;5100412;28;20478;-80
2020/12/25 10:54:25;;;;;;;14.77;8.00;;;;;;;2.41;100.00;96400.09;5100463;28;20553;-80
2020/12/25 10:56:51;;;;;;;14.30;9.13;;;;;;;2.34;100.00;96405.19;5101886;28;20451;-81
2020/12/25 10:59:18;;;;;;;17.37;8.90;;;;;;;2.34;100.00;96405.19;5104741;28;20911;-81
2020/12/25 11:01:46;;;;;;;16.70;7.93;;;;;;;2.29;100.00;96405.94;5103467;28;20475;-83
2020/12/25 11:04:13;;;;;;;14.17;8.60;;;;;;;2.26;100.00;96404.94;5100921;28;20447;-78
2020/12/25 11:06:41;;;;;;;14.50;8.57;;;;;;;2.26;100.00;96399.63;5098629;28;20443;-79
2020/12/25 11:09:09;;;;;;;13.57;7.73;;;;;;;2.29;100.00;96413.91;5104001;28;20494;-81
2020/12/25 11:11:37;;;;;;;17.80;8.50;;;;;;;2.35;100.00;96411.97;5103405;28;20461;-81
2020/12/25 11:14:04;;;;;;;11.50;7.40;;;;;;;2.38;100.00;96405.69;5104563;28;20532;-82
2020/12/25 11:16:32;;;;;;;18.43;7.73;;;;;;;2.45;100.00;96415.84;5100850;28;20440;-79
2020/12/25 11:19:00;;;;;;;13.23;7.93;;;;;;;2.38;100.00;96405.69;5118166;28;20433;-83
2020/12/25 11:21:27;;;;;;;10.80;7.23;;;;;;;2.42;100.00;96406.16;5121800;28;20448;-83
2020/12/25 11:23:56;;;;;;;14.53;8.73;;;;;;;2.31;100.00;96408.81;5121683;28;20428;-83
2020/12/25 11:26:24;;;;;;;11.87;7.67;;;;;;;2.41;100.00;96410.03;5121794;28;20412;-80
2020/12/25 11:28:51;;;;;;;14.97;7.70;;;;;;;2.32;100.00;96402.31;5108018;28;20571;-83
2020/12/25 11:31:18;;;;;;;27.23;8.63;;;;;;;2.34;100.00;96400.59;5099503;28;20520;-83